createdAt,value
2023-11-24T00:00:18.386Z,98938.97
2023-11-24T00:01:24.009Z,98951.45
2023-11-24T00:02:32.070Z,98950.42
2023-11-24T00:03:37.829Z,98940.05
2023-11-24T00:04:43.436Z,98938.09
2023-11-24T00:05:48.977Z,98939.73
2023-11-24T00:06:54.480Z,98933.04
2023-11-24T00:08:00.031Z,98938.08
2023-11-24T00:09:05.516Z,98932.5
2023-11-24T00:10:10.995Z,98937.31
2023-11-24T00:11:16.474Z,98921.35
2023-11-24T00:12:21.933Z,98922.69
2023-11-24T00:13:27.439Z,98929.81
2023-11-24T00:14:32.891Z,98937.62
2023-11-24T00:15:38.517Z,98939.8
2023-11-24T00:16:44.278Z,98939.89
2023-11-24T00:17:49.970Z,98943.81
2023-11-24T00:18:55.882Z,98949.66
2023-11-24T00:20:01.436Z,98937.71
2023-11-24T00:21:06.878Z,98948.64
2023-11-24T00:22:12.349Z,98944.45
2023-11-24T00:23:17.820Z,98940.75
2023-11-24T00:24:23.281Z,98931.8
2023-11-24T00:25:28.881Z,98939.91
2023-11-24T00:26:34.446Z,98947.44
2023-11-24T00:27:40.103Z,98946.73
2023-11-24T00:28:45.701Z,98937.05
2023-11-24T00:29:51.132Z,98936.44
2023-11-24T00:30:56.670Z,98940.54
2023-11-24T00:32:02.141Z,98948.56
2023-11-24T00:33:07.804Z,98944.23
2023-11-24T00:34:13.783Z,98935.98
2023-11-24T00:35:19.441Z,98937.94
2023-11-24T00:36:24.977Z,98955.72
2023-11-24T00:37:30.438Z,98945.23
2023-11-24T00:38:35.871Z,98945.55
2023-11-24T00:39:41.503Z,98952.63
2023-11-24T00:40:46.988Z,98972.59
2023-11-24T00:41:52.457Z,98966.5
2023-11-24T00:42:58.100Z,98959.73
2023-11-24T00:44:03.660Z,98963.42
2023-11-24T00:45:09.162Z,98959.41
2023-11-24T00:46:14.686Z,98949.87
2023-11-24T00:47:20.223Z,98953.97
2023-11-24T00:48:25.765Z,98960.64
2023-11-24T00:49:31.306Z,98949.33
2023-11-24T00:50:36.746Z,98957.03
2023-11-24T00:51:42.312Z,98962.79
2023-11-24T00:52:47.951Z,98966.08
2023-11-24T00:53:53.430Z,98953.02
2023-11-24T00:54:58.873Z,98961.98
2023-11-24T00:56:04.550Z,98950.26
2023-11-24T00:57:10.077Z,98952.53
2023-11-24T00:58:15.527Z,98957.35
2023-11-24T00:59:20.979Z,98948.71
2023-11-24T01:00:26.486Z,98951.79
2023-11-24T01:01:32.037Z,98940.58
2023-11-24T01:02:37.710Z,98952.7
2023-11-24T01:03:43.380Z,98964.74
2023-11-24T01:04:49.257Z,98975.34
2023-11-24T01:05:54.895Z,98972.85
2023-11-24T01:07:00.404Z,98970.41
2023-11-24T01:08:05.960Z,98961.45
2023-11-24T01:09:11.395Z,98975.26
2023-11-24T01:10:16.898Z,98964.83
2023-11-24T01:11:22.385Z,98944.37
2023-11-24T01:12:27.845Z,98946.94
2023-11-24T01:13:33.352Z,98960.8
2023-11-24T01:14:38.777Z,98965.66
2023-11-24T01:15:44.397Z,98963.47
2023-11-24T01:16:50.072Z,98959.99
2023-11-24T01:17:56.666Z,98963.56
2023-11-24T01:19:02.308Z,98979.61
2023-11-24T01:20:07.944Z,98967.78
2023-11-24T01:21:13.415Z,98981.65
2023-11-24T01:22:18.895Z,98980.05
2023-11-24T01:23:24.348Z,98982.41
2023-11-24T01:24:29.845Z,98979.2
2023-11-24T01:25:35.627Z,98978.48
2023-11-24T01:26:41.157Z,98977.23
2023-11-24T01:27:46.640Z,98969.21
2023-11-24T01:28:52.169Z,98966.85
2023-11-24T01:29:57.611Z,98989.81
2023-11-24T01:31:03.157Z,98984.95
2023-11-24T01:32:08.699Z,98966.54
2023-11-24T01:33:14.317Z,98978.7
2023-11-24T01:34:19.997Z,98971.41
2023-11-24T01:35:25.665Z,98970.78
2023-11-24T01:36:31.350Z,98973.95
2023-11-24T01:37:37.018Z,98980.13
2023-11-24T01:38:42.509Z,98978.7
2023-11-24T01:39:48.051Z,98974.06
2023-11-24T01:40:53.543Z,98972.06
2023-11-24T01:41:59.087Z,98960.26
2023-11-24T01:43:04.604Z,98967.94
2023-11-24T01:44:10.053Z,98965.78
2023-11-24T01:45:15.487Z,98967.94
2023-11-24T01:46:21.060Z,98958.17
2023-11-24T01:47:26.751Z,98965.7
2023-11-24T01:48:32.433Z,98966.19
2023-11-24T01:49:37.903Z,98960.62
2023-11-24T01:50:43.338Z,98956.2
2023-11-24T01:51:48.821Z,98970.5
2023-11-24T01:52:54.440Z,98963.91
2023-11-24T01:53:59.899Z,98963.41
2023-11-24T01:55:05.639Z,98967.42
2023-11-24T01:56:11.298Z,98966.58
2023-11-24T01:57:16.733Z,98962.16
2023-11-24T01:58:22.186Z,98962.39
2023-11-24T01:59:27.659Z,98956.11
2023-11-24T02:00:33.133Z,98963.61
2023-11-24T02:01:38.815Z,98949.02
2023-11-24T02:02:45.241Z,98951.26
2023-11-24T02:03:51.161Z,98962.39
2023-11-24T02:04:56.841Z,98954.69
2023-11-24T02:06:02.292Z,98955.39
2023-11-24T02:07:07.780Z,98946.93
2023-11-24T02:08:13.202Z,98967.51
2023-11-24T02:09:18.632Z,98945.72
2023-11-24T02:10:24.068Z,98946.3
2023-11-24T02:11:29.568Z,98953.42
2023-11-24T02:12:35.060Z,98950.75
2023-11-24T02:13:40.525Z,98964.92
2023-11-24T02:14:46.035Z,98962.97
2023-11-24T02:15:51.963Z,98959.4
2023-11-24T02:17:01.752Z,98954.45
2023-11-24T02:18:07.410Z,98958.06
2023-11-24T02:19:12.971Z,98962.16
2023-11-24T02:20:18.410Z,98954.14
2023-11-24T02:21:23.930Z,98954.86
2023-11-24T02:22:29.489Z,98956.02
2023-11-24T02:23:34.943Z,98961.55
2023-11-24T02:24:40.470Z,98960.3
2023-11-24T02:25:46.103Z,98962.56
2023-11-24T02:26:51.637Z,98955.16
2023-11-24T02:27:57.243Z,98948.88
2023-11-24T02:29:02.775Z,98952.48
2023-11-24T02:30:08.368Z,98959.4
2023-11-24T02:31:14.129Z,98956.41
2023-11-24T02:32:19.806Z,98954.14
2023-11-24T02:33:25.498Z,98944.78
2023-11-24T02:34:31.207Z,98953.73
2023-11-24T02:35:36.762Z,98953.73
2023-11-24T02:36:42.287Z,98946.61
2023-11-24T02:37:47.804Z,98946.3
2023-11-24T02:38:53.295Z,98949.09
2023-11-24T02:39:58.874Z,98954.13
2023-11-24T02:41:04.535Z,98964.92
2023-11-24T02:42:09.949Z,98969.78
2023-11-24T02:43:15.417Z,98971.2
2023-11-24T02:44:20.909Z,98969.55
2023-11-24T02:45:26.466Z,98961.44
2023-11-24T02:46:32.004Z,98960.3
2023-11-24T02:47:37.588Z,98957.31
2023-11-24T02:48:43.465Z,98964.61
2023-11-24T02:49:49.534Z,98969.86
2023-11-24T02:50:55.082Z,98971.52
2023-11-24T02:52:00.686Z,98963.18
2023-11-24T02:53:08.458Z,98974.28
2023-11-24T02:54:13.951Z,98973.88
2023-11-24T02:55:19.413Z,98968.3
2023-11-24T02:56:25.907Z,98977.57
2023-11-24T02:57:31.482Z,98969.23
2023-11-24T02:58:38.112Z,98963.8
2023-11-24T02:59:43.576Z,98959.66
2023-11-24T03:00:49.110Z,98963.09
2023-11-24T03:01:54.717Z,98971.2
2023-11-24T03:03:00.231Z,98966.47
2023-11-24T03:04:05.824Z,98971.5
2023-11-24T03:05:11.444Z,98969.75
2023-11-24T03:06:16.950Z,98979.92
2023-11-24T03:07:22.382Z,98972.52
2023-11-24T03:08:27.861Z,98975.19
2023-11-24T03:09:33.371Z,98966.56
2023-11-24T03:10:38.889Z,98974.97
2023-11-24T03:11:44.358Z,98970.86
2023-11-24T03:12:49.943Z,98969.7
2023-11-24T03:13:55.408Z,98980.63
2023-11-24T03:15:00.882Z,98967.27
2023-11-24T03:16:06.486Z,98973.31
2023-11-24T03:17:12.109Z,98980.31
2023-11-24T03:18:17.590Z,98975.69
2023-11-24T03:19:23.043Z,98980.72
2023-11-24T03:20:28.509Z,98977.23
2023-11-24T03:21:34.032Z,98977.23
2023-11-24T03:22:39.596Z,98972.91
2023-11-24T03:23:45.118Z,98983.91
2023-11-24T03:24:50.625Z,98978.57
2023-11-24T03:25:56.125Z,98982.58
2023-11-24T03:27:01.586Z,98975.58
2023-11-24T03:28:07.200Z,98987.2
2023-11-24T03:29:12.731Z,98983.77
2023-11-24T03:30:18.195Z,98981.54
2023-11-24T03:31:23.654Z,98979.36
2023-11-24T03:32:29.120Z,98977.8
2023-11-24T03:33:37.872Z,98970.21
2023-11-24T03:34:43.616Z,98964.89
2023-11-24T03:35:49.258Z,98968.89
2023-11-24T03:36:54.824Z,98965.91
2023-11-24T03:38:00.338Z,98975.88
2023-11-24T03:39:05.830Z,98967.65
2023-11-24T03:40:11.454Z,98963.84
2023-11-24T03:41:17.029Z,98968.44
2023-11-24T03:42:22.466Z,98966.91
2023-11-24T03:43:28.018Z,98968.83
2023-11-24T03:44:33.548Z,98964.11
2023-11-24T03:45:39.220Z,98969.37
2023-11-24T03:46:44.750Z,98966.06
2023-11-24T03:47:50.448Z,98959.38
2023-11-24T03:48:56.337Z,98950.25
2023-11-24T03:50:01.892Z,98953.95
2023-11-24T03:51:07.349Z,98950.02
2023-11-24T03:52:14.997Z,98947.38
2023-11-24T03:53:20.455Z,98941.53
2023-11-24T03:54:26.115Z,98950.55
2023-11-24T03:55:31.626Z,98944.19
2023-11-24T03:56:37.052Z,98944.81
2023-11-24T03:57:42.699Z,98937.2
2023-11-24T03:58:48.239Z,98935.87
2023-11-24T03:59:53.791Z,98937.38
2023-11-24T04:00:59.396Z,98941.59
2023-11-24T04:02:05.075Z,98940.58
2023-11-24T04:03:10.788Z,98938.72
2023-11-24T04:04:16.481Z,98945.61
2023-11-24T04:05:22.120Z,98946.22
2023-11-24T04:06:27.609Z,98948.27
2023-11-24T04:07:33.091Z,98944.98
2023-11-24T04:08:38.525Z,98947.56
2023-11-24T04:09:44.056Z,98943.73
2023-11-24T04:10:49.673Z,98951.13
2023-11-24T04:11:55.111Z,98942.92
2023-11-24T04:13:00.688Z,98950.41
2023-11-24T04:14:06.159Z,98946.1
2023-11-24T04:15:11.648Z,98951.89
2023-11-24T04:16:17.494Z,98954.24
2023-11-24T04:17:23.379Z,98950.43
2023-11-24T04:18:28.997Z,98942.14
2023-11-24T04:19:34.568Z,98955.59
2023-11-24T04:20:40.039Z,98950.34
2023-11-24T04:21:45.578Z,98962.83
2023-11-24T04:22:51.144Z,98965.67
2023-11-24T04:23:56.624Z,98957.75
2023-11-24T04:25:02.188Z,98971.23
2023-11-24T04:26:07.892Z,98962.6
2023-11-24T04:27:13.312Z,98961.49
2023-11-24T04:28:18.805Z,98955.22
2023-11-24T04:29:24.465Z,98965.92
2023-11-24T04:30:30.032Z,98956.97
2023-11-24T04:31:35.491Z,98964.27
2023-11-24T04:32:40.995Z,98960.88
2023-11-24T04:33:46.793Z,98954.11
2023-11-24T04:34:52.664Z,98954.69
2023-11-24T04:35:58.220Z,98954.42
2023-11-24T04:37:03.809Z,98961.11
2023-11-24T04:38:09.451Z,98953.09
2023-11-24T04:39:14.937Z,98961.19
2023-11-24T04:40:20.381Z,98948.05
2023-11-24T04:41:25.874Z,98957.52
2023-11-24T04:42:31.487Z,98947.45
2023-11-24T04:43:36.962Z,98940.69
2023-11-24T04:44:42.417Z,98937.88
2023-11-24T04:45:47.907Z,98940.87
2023-11-24T04:46:54.555Z,98933.47
2023-11-24T04:48:00.076Z,98932.86
2023-11-24T04:49:05.957Z,98938.2
2023-11-24T04:50:11.600Z,98939.3
2023-11-24T04:51:17.151Z,98941.77
2023-11-24T04:52:22.633Z,98933.66
2023-11-24T04:53:28.079Z,98930.58
2023-11-24T04:54:33.603Z,98937.67
2023-11-24T04:55:39.120Z,98936.02
2023-11-24T04:56:44.581Z,98940.12
2023-11-24T04:57:50.201Z,98930.76
2023-11-24T04:58:55.960Z,98933.3
2023-11-24T05:00:01.415Z,98937.03
2023-11-24T05:01:07.127Z,98938.95
2023-11-24T05:02:13.049Z,98947.07
2023-11-24T05:03:18.771Z,98936.55
2023-11-24T05:04:25.502Z,98937.03
2023-11-24T05:05:31.143Z,98950.5
2023-11-24T05:06:36.744Z,98943.83
2023-11-24T05:07:42.295Z,98950.34
2023-11-24T05:08:50.283Z,98955.3
2023-11-24T05:09:55.899Z,98955.33
2023-11-24T05:11:01.485Z,98954.21
2023-11-24T05:12:06.930Z,98956.67
2023-11-24T05:13:12.439Z,98961.55
2023-11-24T05:14:17.997Z,98959
2023-11-24T05:15:23.563Z,98960.14
2023-11-24T05:16:29.189Z,98949.77
2023-11-24T05:17:34.874Z,98954.95
2023-11-24T05:18:40.513Z,98950.45
2023-11-24T05:19:46.015Z,98958.28
2023-11-24T05:20:51.527Z,98959.13
2023-11-24T05:21:57.223Z,98947.22
2023-11-24T05:23:02.743Z,98958.44
2023-11-24T05:24:08.198Z,98955.77
2023-11-24T05:25:13.674Z,98943.55
2023-11-24T05:26:19.225Z,98947.87
2023-11-24T05:27:24.633Z,98954.34
2023-11-24T05:28:30.140Z,98951.48
2023-11-24T05:29:35.571Z,98961.58
2023-11-24T05:30:41.170Z,98955.73
2023-11-24T05:31:49.077Z,98945.2
2023-11-24T05:32:54.709Z,98944.71
2023-11-24T05:34:00.587Z,98953.55
2023-11-24T05:35:06.238Z,98955.02
2023-11-24T05:36:11.808Z,98957.07
2023-11-24T05:37:17.327Z,98950.88
2023-11-24T05:38:22.768Z,98947.61
2023-11-24T05:39:28.391Z,98948.42
2023-11-24T05:40:33.991Z,98938.95
2023-11-24T05:41:39.456Z,98945.56
2023-11-24T05:42:45.100Z,98931.73
2023-11-24T05:43:50.707Z,98934.95
2023-11-24T05:44:56.372Z,98941.33
2023-11-24T05:46:02.000Z,98942.26
2023-11-24T05:47:07.848Z,98933.08
2023-11-24T05:48:13.443Z,98936.45
2023-11-24T05:49:18.882Z,98942.13
2023-11-24T05:50:24.321Z,98937.27
2023-11-24T05:51:29.875Z,98945.42
2023-11-24T05:52:35.374Z,98932.75
2023-11-24T05:53:40.828Z,98930.66
2023-11-24T05:54:46.674Z,98934.57
2023-11-24T05:55:52.179Z,98930.95
2023-11-24T05:56:57.650Z,98934.97
2023-11-24T05:58:03.193Z,98936.83
2023-11-24T05:59:08.701Z,98927.74
2023-11-24T06:00:14.275Z,98928.45
2023-11-24T06:01:19.747Z,98922.38
2023-11-24T06:02:25.243Z,98926.48
2023-11-24T06:03:30.862Z,98925.38
2023-11-24T06:04:36.690Z,98912.08
2023-11-24T06:05:42.416Z,98914.56
2023-11-24T06:06:48.986Z,98900.88
2023-11-24T06:07:57.968Z,98907.56
2023-11-24T06:09:03.463Z,98912.7
2023-11-24T06:10:09.086Z,98920.51
2023-11-24T06:11:14.711Z,98906.95
2023-11-24T06:12:20.170Z,98918.27
2023-11-24T06:13:25.646Z,98915.69
2023-11-24T06:14:31.150Z,98921.22
2023-11-24T06:15:36.596Z,98908.86
2023-11-24T06:16:42.100Z,98914.66
2023-11-24T06:17:47.616Z,98921.03
2023-11-24T06:18:53.252Z,98916.08
2023-11-24T06:19:58.782Z,98926.16
2023-11-24T06:21:04.361Z,98921.83
2023-11-24T06:22:09.914Z,98932.94
2023-11-24T06:23:15.433Z,98930.88
2023-11-24T06:24:20.910Z,98940.64
2023-11-24T06:25:26.416Z,98942.59
2023-11-24T06:26:31.884Z,98941.67
2023-11-24T06:27:37.429Z,98940.86
2023-11-24T06:28:43.073Z,98943.71
2023-11-24T06:29:48.561Z,98938.48
2023-11-24T06:30:54.079Z,98927.03
2023-11-24T06:31:59.636Z,98933.41
2023-11-24T06:33:05.149Z,98935.67
2023-11-24T06:34:10.904Z,98939.38
2023-11-24T06:35:16.645Z,98938.66
2023-11-24T06:36:22.261Z,98938.34
2023-11-24T06:37:27.790Z,98934.42
2023-11-24T06:38:33.263Z,98945.33
2023-11-24T06:39:38.769Z,98939.98
2023-11-24T06:40:44.283Z,98947.78
2023-11-24T06:41:49.767Z,98941.63
2023-11-24T06:42:55.416Z,98933.77
2023-11-24T06:44:00.938Z,98919.69
2023-11-24T06:45:06.395Z,98937.78
2023-11-24T06:46:11.868Z,98942.51
2023-11-24T06:47:17.516Z,98933.67
2023-11-24T06:48:22.967Z,98941.47
2023-11-24T06:49:29.493Z,98938.09
2023-11-24T06:50:35.186Z,98939.53
2023-11-24T06:51:40.674Z,98932.14
2023-11-24T06:52:46.366Z,98932.27
2023-11-24T06:53:51.795Z,98929.78
2023-11-24T06:54:57.317Z,98939.59
2023-11-24T06:56:02.924Z,98949.59
2023-11-24T06:57:08.501Z,98943.13
2023-11-24T06:58:14.063Z,98935.52
2023-11-24T06:59:19.573Z,98930.89
2023-11-24T07:00:24.997Z,98941.09
2023-11-24T07:01:30.788Z,98949
2023-11-24T07:02:38.929Z,98940.38
2023-11-24T07:03:44.950Z,98946.23
2023-11-24T07:04:50.437Z,98943.86
2023-11-24T07:05:55.894Z,98940.38
2023-11-24T07:07:01.486Z,98933.25
2023-11-24T07:08:06.954Z,98951.48
2023-11-24T07:09:14.589Z,98940.56
2023-11-24T07:10:20.142Z,98942.52
2023-11-24T07:11:25.786Z,98945.6
2023-11-24T07:12:31.388Z,98943.45
2023-11-24T07:13:36.866Z,98943.05
2023-11-24T07:14:42.319Z,98943.95
2023-11-24T07:15:47.859Z,98930.39
2023-11-24T07:16:53.504Z,98946.75
2023-11-24T07:17:59.244Z,98950.56
2023-11-24T07:19:05.019Z,98947.8
2023-11-24T07:20:10.747Z,98954.89
2023-11-24T07:21:16.180Z,98947.31
2023-11-24T07:22:21.676Z,98957.8
2023-11-24T07:23:27.153Z,98939.83
2023-11-24T07:24:32.858Z,98946.61
2023-11-24T07:25:38.370Z,98936.45
2023-11-24T07:26:43.815Z,98928.61
2023-11-24T07:27:49.822Z,98926.55
2023-11-24T07:28:55.450Z,98920.89
2023-11-24T07:30:00.918Z,98934.48
2023-11-24T07:31:09.756Z,98925.84
2023-11-24T07:32:15.435Z,98935.73
2023-11-24T07:33:20.947Z,98947.25
2023-11-24T07:34:26.827Z,98963.92
2023-11-24T07:35:32.478Z,98973.61
2023-11-24T07:36:38.040Z,98963
2023-11-24T07:37:43.715Z,98961.96
2023-11-24T07:38:49.255Z,98973.78
2023-11-24T07:39:54.792Z,98975.52
2023-11-24T07:41:00.341Z,98976.58
2023-11-24T07:42:06.034Z,98975.02
2023-11-24T07:43:11.668Z,98981.27
2023-11-24T07:44:17.302Z,98977.46
2023-11-24T07:45:22.824Z,98973.22
2023-11-24T07:46:28.442Z,98975.18
2023-11-24T07:47:34.099Z,98981.46
2023-11-24T07:48:39.708Z,98973
2023-11-24T07:49:45.273Z,98979.49
2023-11-24T07:50:50.862Z,98974.23
2023-11-24T07:51:56.414Z,98974.01
2023-11-24T07:53:02.010Z,98978.14
2023-11-24T07:54:07.496Z,98975.65
2023-11-24T07:55:13.036Z,98972.97
2023-11-24T07:56:18.925Z,98966.81
2023-11-24T07:57:24.438Z,98965.04
2023-11-24T07:58:29.947Z,98965.56
2023-11-24T07:59:35.425Z,98963.91
2023-11-24T08:00:40.961Z,98970.28
2023-11-24T08:01:46.620Z,98965.43
2023-11-24T08:02:52.316Z,98965.64
2023-11-24T08:03:58.108Z,98956.89
2023-11-24T08:05:03.773Z,98957.3
2023-11-24T08:06:09.342Z,98962.44
2023-11-24T08:07:15.217Z,98965.82
2023-11-24T08:08:20.812Z,98960.47
2023-11-24T08:09:26.355Z,98958.73
2023-11-24T08:10:31.851Z,98953.37
2023-11-24T08:11:37.326Z,98949.76
2023-11-24T08:12:42.960Z,98942.27
2023-11-24T08:13:48.525Z,98947.17
2023-11-24T08:14:54.156Z,98950.38
2023-11-24T08:15:59.782Z,98954.16
2023-11-24T08:17:05.567Z,98946.03
2023-11-24T08:18:11.302Z,98948.91
2023-11-24T08:19:16.923Z,98948.63
2023-11-24T08:20:22.490Z,98950.14
2023-11-24T08:21:27.979Z,98950.45
2023-11-24T08:22:33.462Z,98944.79
2023-11-24T08:23:39.032Z,98949.33
2023-11-24T08:24:44.550Z,98949.42
2023-11-24T08:25:50.090Z,98945.8
2023-11-24T08:26:55.594Z,98949.98
2023-11-24T08:28:01.210Z,98940.75
2023-11-24T08:29:06.783Z,98939.81
2023-11-24T08:30:12.297Z,98933.13
2023-11-24T08:31:18.090Z,98945
2023-11-24T08:32:23.620Z,98938.33
2023-11-24T08:33:29.167Z,98936.69
2023-11-24T08:34:34.883Z,98939.78
2023-11-24T08:35:40.410Z,98948.25
2023-11-24T08:36:45.974Z,98938.51
2023-11-24T08:37:51.563Z,98937.94
2023-11-24T08:38:57.085Z,98940.84
2023-11-24T08:40:02.706Z,98949.08
2023-11-24T08:41:08.268Z,98940.56
2023-11-24T08:42:13.742Z,98943.77
2023-11-24T08:43:19.325Z,98938.11
2023-11-24T08:44:24.881Z,98945.11
2023-11-24T08:45:30.444Z,98940.07
2023-11-24T08:46:36.426Z,98950.69
2023-11-24T08:47:42.117Z,98937.48
2023-11-24T08:48:47.660Z,98950.77
2023-11-24T08:49:53.163Z,98946.31
2023-11-24T08:51:00.908Z,98944.17
2023-11-24T08:52:06.545Z,98956.3
2023-11-24T08:53:12.114Z,98944.35
2023-11-24T08:54:17.614Z,98943.32
2023-11-24T08:55:23.182Z,98952.28
2023-11-24T08:56:28.734Z,98943.41
2023-11-24T08:57:34.365Z,98946.61
2023-11-24T08:58:40.001Z,98937.73
2023-11-24T08:59:45.549Z,98939.59
2023-11-24T09:00:51.113Z,98930.41
2023-11-24T09:01:56.880Z,98931.03
2023-11-24T09:03:02.603Z,98931.21
2023-11-24T09:04:08.224Z,98927.41
2023-11-24T09:05:13.988Z,98923.3
2023-11-24T09:06:19.614Z,98933.16
2023-11-24T09:07:25.150Z,98916.39
2023-11-24T09:08:30.638Z,98926.69
2023-11-24T09:09:36.311Z,98924.91
2023-11-24T09:10:41.993Z,98930.26
2023-11-24T09:11:47.530Z,98924.5
2023-11-24T09:12:53.062Z,98924.09
2023-11-24T09:13:58.550Z,98925.03
2023-11-24T09:15:04.062Z,98927.48
2023-11-24T09:16:09.865Z,98926.33
2023-11-24T09:17:15.590Z,98916.65
2023-11-24T09:18:21.058Z,98919.23
2023-11-24T09:19:26.579Z,98916.47
2023-11-24T09:20:32.066Z,98916.33
2023-11-24T09:21:37.700Z,98924.36
2023-11-24T09:22:43.245Z,98921.05
2023-11-24T09:23:48.765Z,98923.01
2023-11-24T09:24:54.500Z,98912.84
2023-11-24T09:26:00.079Z,98918.37
2023-11-24T09:27:05.610Z,98920.55
2023-11-24T09:28:11.157Z,98917.96
2023-11-24T09:29:16.744Z,98908.78
2023-11-24T09:30:22.376Z,98898.2
2023-11-24T09:31:27.989Z,98903.64
2023-11-24T09:32:33.583Z,98905.39
2023-11-24T09:33:39.363Z,98901.59
2023-11-24T09:34:45.114Z,98909.32
2023-11-24T09:35:50.750Z,98893.5
2023-11-24T09:36:58.728Z,98903.48
2023-11-24T09:38:04.412Z,98897.11
2023-11-24T09:39:09.880Z,98900.91
2023-11-24T09:40:15.999Z,98896.19
2023-11-24T09:41:22.606Z,98898.28
2023-11-24T09:42:28.096Z,98896.72
2023-11-24T09:43:33.589Z,98897.75
2023-11-24T09:44:39.073Z,98900.03
2023-11-24T09:45:44.625Z,98895.53
2023-11-24T09:46:54.390Z,98886.56
2023-11-24T09:48:00.061Z,98898.92
2023-11-24T09:49:05.762Z,98892.86
2023-11-24T09:50:11.272Z,98878.95
2023-11-24T09:51:16.745Z,98892.15
2023-11-24T09:52:22.563Z,98876.9
2023-11-24T09:53:28.070Z,98887.61
2023-11-24T09:54:33.531Z,98888.84
2023-11-24T09:55:39.026Z,98874.53
2023-11-24T09:56:44.486Z,98887.51
2023-11-24T09:57:50.036Z,98894.69
2023-11-24T09:58:55.649Z,98878.14
2023-11-24T10:00:01.155Z,98883.67
2023-11-24T10:01:06.826Z,98881.31
2023-11-24T10:02:12.639Z,98878.72
2023-11-24T10:03:18.316Z,98868.86
2023-11-24T10:04:23.961Z,98868.33
2023-11-24T10:05:29.566Z,98878.13
2023-11-24T10:06:35.587Z,98859.19
2023-11-24T10:07:41.177Z,98880.81
2023-11-24T10:08:46.685Z,98877.61
2023-11-24T10:09:52.267Z,98876.27
2023-11-24T10:10:57.866Z,98872.87
2023-11-24T10:12:03.473Z,98884.08
2023-11-24T10:13:09.033Z,98875.45
2023-11-24T10:14:14.573Z,98885.32
2023-11-24T10:15:20.101Z,98876.89
2023-11-24T10:16:26.024Z,98872.16
2023-11-24T10:17:31.723Z,98863.69
2023-11-24T10:18:37.266Z,98869.58
2023-11-24T10:19:42.789Z,98874.2
2023-11-24T10:20:48.279Z,98864.13
2023-11-24T10:21:53.828Z,98863.81
2023-11-24T10:22:59.476Z,98865.73
2023-11-24T10:24:05.009Z,98864.61
2023-11-24T10:25:10.586Z,98869.88
2023-11-24T10:26:17.166Z,98857.2
2023-11-24T10:27:22.685Z,98847.94
2023-11-24T10:28:28.272Z,98852.97
2023-11-24T10:29:33.907Z,98860.28
2023-11-24T10:30:39.758Z,98854.09
2023-11-24T10:31:45.418Z,98851.94
2023-11-24T10:32:51.253Z,98854.62
2023-11-24T10:33:57.085Z,98860.28
2023-11-24T10:35:02.857Z,98854.39
2023-11-24T10:36:08.633Z,98862.33
2023-11-24T10:37:14.307Z,98865.09
2023-11-24T10:38:19.881Z,98859.22
2023-11-24T10:39:25.413Z,98868.58
2023-11-24T10:40:34.050Z,98865.81
2023-11-24T10:41:39.529Z,98857.87
2023-11-24T10:42:45.069Z,98854.39
2023-11-24T10:43:50.805Z,98861.58
2023-11-24T10:44:56.406Z,98852.74
2023-11-24T10:46:01.988Z,98850.37
2023-11-24T10:47:07.725Z,98852.34
2023-11-24T10:48:13.496Z,98844.81
2023-11-24T10:49:19.220Z,98834.11
2023-11-24T10:50:24.795Z,98830.31
2023-11-24T10:51:30.555Z,98838.02
2023-11-24T10:52:36.138Z,98839.98
2023-11-24T10:53:41.678Z,98833.88
2023-11-24T10:54:47.261Z,98831.2
2023-11-24T10:55:52.817Z,98844.27
2023-11-24T10:56:59.334Z,98847.47
2023-11-24T10:58:05.254Z,98852.91
2023-11-24T10:59:10.882Z,98853.75
2023-11-24T11:00:16.359Z,98843.33
2023-11-24T11:01:22.033Z,98844.26
2023-11-24T11:02:28.012Z,98837.26
2023-11-24T11:03:33.623Z,98842.3
2023-11-24T11:04:39.286Z,98824.02
2023-11-24T11:05:44.750Z,98826.97
2023-11-24T11:06:50.391Z,98828.13
2023-11-24T11:07:56.193Z,98831.28
2023-11-24T11:09:01.697Z,98823.17
2023-11-24T11:10:07.232Z,98826.64
2023-11-24T11:11:12.843Z,98824.38
2023-11-24T11:12:18.347Z,98818.4
2023-11-24T11:13:23.900Z,98820.67
2023-11-24T11:14:29.497Z,98819.64
2023-11-24T11:15:35.032Z,98813.37
2023-11-24T11:16:40.658Z,98820.48
2023-11-24T11:17:46.405Z,98817.73
2023-11-24T11:18:51.999Z,98810.96
2023-11-24T11:19:57.548Z,98808.29
2023-11-24T11:21:03.047Z,98805.72
2023-11-24T11:22:08.870Z,98811.2
2023-11-24T11:23:14.541Z,98811.2
2023-11-24T11:24:20.007Z,98806.48
2023-11-24T11:25:25.604Z,98804.78
2023-11-24T11:26:31.151Z,98797.37
2023-11-24T11:27:36.629Z,98804.59
2023-11-24T11:28:42.215Z,98806.44
2023-11-24T11:29:47.741Z,98796.87
2023-11-24T11:30:53.373Z,98795.84
2023-11-24T11:32:02.556Z,98799.95
2023-11-24T11:33:08.357Z,98802.23
2023-11-24T11:34:13.984Z,98799.98
2023-11-24T11:35:19.666Z,98801.42
2023-11-24T11:36:25.175Z,98804.28
2023-11-24T11:37:30.658Z,98809.23
2023-11-24T11:38:36.252Z,98805
2023-11-24T11:39:41.892Z,98823.86
2023-11-24T11:40:47.529Z,98817.05
2023-11-24T11:41:53.258Z,98820.84
2023-11-24T11:42:58.857Z,98819.72
2023-11-24T11:44:04.861Z,98809.42
2023-11-24T11:45:10.367Z,98821.98
2023-11-24T11:46:16.282Z,98806.03
2023-11-24T11:47:22.456Z,98801.61
2023-11-24T11:48:28.518Z,98798
2023-11-24T11:49:36.197Z,98803.54
2023-11-24T11:50:41.731Z,98802.02
2023-11-24T11:51:47.584Z,98802.2
2023-11-24T11:52:53.493Z,98804.16
2023-11-24T11:53:59.219Z,98796.44
2023-11-24T11:55:04.828Z,98795.41
2023-11-24T11:56:10.434Z,98795.59
2023-11-24T11:57:15.996Z,98795.69
2023-11-24T11:58:21.579Z,98791.37
2023-11-24T11:59:27.139Z,98803.31
2023-11-24T12:00:32.635Z,98790.55
2023-11-24T12:01:38.483Z,98791.27
2023-11-24T12:02:44.672Z,98792.3
2023-11-24T12:03:50.491Z,98787.56
2023-11-24T12:04:56.183Z,98798.98
2023-11-24T12:06:01.651Z,98787.16
2023-11-24T12:07:07.285Z,98777.36
2023-11-24T12:08:12.890Z,98784.67
2023-11-24T12:09:18.414Z,98786.02
2023-11-24T12:10:24.211Z,98784.09
2023-11-24T12:11:29.907Z,98780.08
2023-11-24T12:12:35.374Z,98775.13
2023-11-24T12:13:42.220Z,98772.23
2023-11-24T12:14:47.693Z,98777.48
2023-11-24T12:15:53.305Z,98777.48
2023-11-24T12:16:59.133Z,98770.7
2023-11-24T12:18:04.871Z,98771.11
2023-11-24T12:19:10.684Z,98773.7
2023-11-24T12:20:16.424Z,98763.8
2023-11-24T12:21:21.944Z,98760.72
2023-11-24T12:22:27.502Z,98756.67
2023-11-24T12:23:33.040Z,98766.87
2023-11-24T12:24:38.565Z,98753.28
2023-11-24T12:25:44.190Z,98754.12
2023-11-24T12:26:49.739Z,98764.92
2023-11-24T12:27:55.346Z,98770.98
2023-11-24T12:29:00.960Z,98772.23
2023-11-24T12:30:06.448Z,98760.5
2023-11-24T12:31:12.093Z,98761.41
2023-11-24T12:32:17.788Z,98759.56
2023-11-24T12:33:23.470Z,98772.55
2023-11-24T12:34:29.000Z,98750.11
2023-11-24T12:35:34.506Z,98765.14
2023-11-24T12:36:40.008Z,98756.09
2023-11-24T12:37:45.529Z,98757.7
2023-11-24T12:38:51.014Z,98759.66
2023-11-24T12:39:56.577Z,98752.26
2023-11-24T12:41:02.197Z,98752.48
2023-11-24T12:42:07.674Z,98751.55
2023-11-24T12:43:13.261Z,98756.48
2023-11-24T12:44:18.848Z,98760.09
2023-11-24T12:45:24.393Z,98753
2023-11-24T12:46:30.037Z,98746.44
2023-11-24T12:48:47.360Z,98748.89
2023-11-24T12:49:52.881Z,98734.7
2023-11-24T12:50:58.431Z,98745.93
2023-11-24T12:52:04.114Z,98737.59
2023-11-24T12:53:09.700Z,98731.2
2023-11-24T12:54:15.236Z,98734.28